createdAt,value
2023-01-29T00:04:23.409Z,6.53
2023-01-29T00:09:54.657Z,7.40
2023-01-29T00:15:25.894Z,7.10
2023-01-29T00:20:57.349Z,6.32
2023-01-29T00:26:29.138Z,6.00
2023-01-29T00:32:00.446Z,7.22
2023-01-29T00:37:31.972Z,5.50
2023-01-29T00:43:21.582Z,6.57
2023-01-29T00:48:52.981Z,9.13
2023-01-29T00:54:24.221Z,7.55
2023-01-29T00:59:55.196Z,7.07
2023-01-29T01:05:27.064Z,7.32
2023-01-29T01:11:00.664Z,5.72
2023-01-29T01:16:31.854Z,6.37
2023-01-29T01:22:05.127Z,6.03
2023-01-29T01:27:41.033Z,6.77
2023-01-29T01:33:12.130Z,6.15
2023-01-29T01:38:46.460Z,6.45
2023-01-29T01:44:53.636Z,6.43
2023-01-29T01:50:50.731Z,7.47
2023-01-29T01:56:27.068Z,5.30
2023-01-29T02:01:58.710Z,5.30
2023-01-29T02:07:48.672Z,5.95
2023-01-29T02:13:19.962Z,6.90
2023-01-29T02:18:51.692Z,5.72
2023-01-29T02:24:42.578Z,4.75
2023-01-29T02:30:26.804Z,4.95
2023-01-29T02:36:30.444Z,6.07
2023-01-29T02:42:28.778Z,5.43
2023-01-29T02:48:02.039Z,6.55
2023-01-29T02:53:39.401Z,6.53
2023-01-29T02:59:15.522Z,6.55
2023-01-29T03:04:51.743Z,9.07
2023-01-29T03:10:39.408Z,4.85
2023-01-29T03:16:12.904Z,5.68
2023-01-29T03:21:55.368Z,4.75
2023-01-29T03:28:10.799Z,5.40
2023-01-29T03:33:50.940Z,5.18
2023-01-29T03:39:25.167Z,5.22
2023-01-29T03:45:06.453Z,6.55
2023-01-29T03:50:59.469Z,5.80
2023-01-29T03:56:49.013Z,4.38
2023-01-29T04:02:28.065Z,4.03
2023-01-29T04:08:07.350Z,4.38
2023-01-29T04:13:39.191Z,6.32
2023-01-29T04:19:10.763Z,4.65
2023-01-29T04:24:45.365Z,5.05
2023-01-29T04:30:25.770Z,6.72
2023-01-29T04:36:07.255Z,4.22
2023-01-29T04:41:47.749Z,4.07
2023-01-29T04:47:43.023Z,5.22
2023-01-29T04:53:45.609Z,4.93
2023-01-29T04:59:21.983Z,6.15
2023-01-29T05:04:54.441Z,5.47
2023-01-29T05:10:25.756Z,5.40
2023-01-29T05:16:02.748Z,5.28
2023-01-29T05:21:34.181Z,5.82
2023-01-29T05:27:23.819Z,4.45
2023-01-29T05:32:55.370Z,4.43
2023-01-29T05:38:26.567Z,4.72
2023-01-29T05:43:57.896Z,3.88
2023-01-29T05:49:29.167Z,4.13
2023-01-29T05:55:00.291Z,5.70
2023-01-29T06:00:31.319Z,4.88
2023-01-29T06:06:02.768Z,3.83
2023-01-29T06:11:34.206Z,6.45
2023-01-29T06:17:05.772Z,4.30
2023-01-29T06:22:37.006Z,4.35
2023-01-29T06:28:08.452Z,5.03
2023-01-29T06:33:39.940Z,4.68
2023-01-29T06:39:11.392Z,5.38
2023-01-29T06:44:42.818Z,3.90
2023-01-29T06:50:13.927Z,4.22
2023-01-29T06:55:51.816Z,3.90
2023-01-29T07:01:35.233Z,6.10
2023-01-29T07:07:13.431Z,4.55
2023-01-29T07:12:44.885Z,3.95
2023-01-29T07:18:16.345Z,3.22
2023-01-29T07:23:47.564Z,4.57
2023-01-29T07:29:18.469Z,5.20
2023-01-29T07:34:49.666Z,5.18
2023-01-29T07:40:20.786Z,4.93
2023-01-29T07:45:52.278Z,5.03
2023-01-29T07:51:23.705Z,5.25
2023-01-29T07:56:55.579Z,4.82
2023-01-29T08:02:26.825Z,4.57
2023-01-29T08:08:06.539Z,6.15
2023-01-29T08:13:38.593Z,7.25
2023-01-29T08:19:09.831Z,5.68
2023-01-29T08:24:53.429Z,5.45
2023-01-29T08:30:33.810Z,6.13
2023-01-29T08:36:05.515Z,6.78
2023-01-29T08:41:36.559Z,6.30
2023-01-29T08:47:07.496Z,6.70
2023-01-29T08:52:38.637Z,7.13
2023-01-29T09:39:47.309Z,5.60
2023-01-29T09:45:25.148Z,5.55
2023-01-29T09:50:59.276Z,5.90
2023-01-29T09:56:30.752Z,5.00
2023-01-29T10:02:06.438Z,7.65
2023-01-29T10:08:02.169Z,7.05
2023-01-29T10:13:48.425Z,5.95
2023-01-29T10:19:38.092Z,6.32
2023-01-29T10:25:15.243Z,5.40
2023-01-29T10:30:52.205Z,6.00
2023-01-29T10:36:34.245Z,6.13
2023-01-29T10:42:31.546Z,5.53
2023-01-29T10:48:30.096Z,6.00
2023-01-29T11:25:21.674Z,4.80
2023-01-29T11:30:53.655Z,5.38
2023-01-29T11:36:45.927Z,5.18
2023-01-29T11:42:21.776Z,6.90
2023-01-29T11:47:55.391Z,9.77
2023-01-29T11:53:45.399Z,13.73
2023-01-29T11:59:37.398Z,11.55
2023-01-29T12:05:20.432Z,8.05
2023-01-29T12:10:51.825Z,8.25
2023-01-29T12:17:00.111Z,8.32
2023-01-29T12:22:50.161Z,7.63
2023-01-29T12:28:39.385Z,9.77
2023-01-29T12:34:23.526Z,9.27
2023-01-29T12:39:58.103Z,7.10
2023-01-29T12:45:29.645Z,6.40
2023-01-29T12:51:16.101Z,5.38
2023-01-29T12:56:49.704Z,6.00
2023-01-29T13:02:37.606Z,5.60
2023-01-29T13:08:28.007Z,6.22
2023-01-29T13:14:05.904Z,5.35
2023-01-29T13:19:41.266Z,7.10
2023-01-29T13:25:20.365Z,6.75
2023-01-29T13:31:11.960Z,5.93
2023-01-29T13:36:48.460Z,5.45
2023-01-29T13:42:21.019Z,9.32
2023-01-29T13:47:53.520Z,7.20
2023-01-29T13:53:27.848Z,6.57
2023-01-29T13:58:59.752Z,6.40
2023-01-29T14:04:32.767Z,8.20
2023-01-29T14:10:17.135Z,6.30
2023-01-29T14:15:58.046Z,6.47
2023-01-29T14:21:34.573Z,5.82
2023-01-29T14:27:06.037Z,6.63
2023-01-29T14:32:39.847Z,6.32
2023-01-29T14:38:13.557Z,5.35
2023-01-29T14:43:44.924Z,4.85
2023-01-29T14:49:54.630Z,5.63
2023-01-29T14:55:45.416Z,6.82
2023-01-29T15:01:23.441Z,6.13
2023-01-29T15:07:06.600Z,8.75
2023-01-29T15:12:50.205Z,7.65
2023-01-29T15:18:29.736Z,6.47
2023-01-29T15:24:06.252Z,6.28
2023-01-29T15:29:38.367Z,5.95
2023-01-29T15:35:29.185Z,7.32
2023-01-29T15:41:02.740Z,7.70
2023-01-29T15:46:36.659Z,7.80
2023-01-29T15:52:19.667Z,6.30
2023-01-29T15:57:51.340Z,11.70
2023-01-29T16:03:25.298Z,12.80
2023-01-29T16:08:56.819Z,12.25
2023-01-29T16:14:29.006Z,8.48
2023-01-29T16:20:02.523Z,8.95
2023-01-29T16:25:35.520Z,10.52
2023-01-29T16:31:11.416Z,8.40
2023-01-29T16:36:46.810Z,9.35
2023-01-29T16:42:20.233Z,6.65
2023-01-29T16:48:20.935Z,10.38
2023-01-29T16:54:07.485Z,8.45
2023-01-29T16:59:39.781Z,6.65
2023-01-29T17:05:26.828Z,8.32
2023-01-29T17:10:57.773Z,9.00
2023-01-29T17:16:30.319Z,9.00
2023-01-29T17:22:05.682Z,8.18
2023-01-29T17:27:40.961Z,8.05
2023-01-29T17:33:22.987Z,8.50
2023-01-29T17:38:54.154Z,8.00
2023-01-29T17:44:28.355Z,8.38
2023-01-29T17:50:00.205Z,9.27
2023-01-29T17:55:31.649Z,9.73
2023-01-29T18:01:02.734Z,8.10
2023-01-29T18:06:33.827Z,8.57
2023-01-29T18:12:08.989Z,7.78
2023-01-29T18:17:40.694Z,7.53
2023-01-29T18:23:12.823Z,9.80
2023-01-29T18:28:44.158Z,7.80
2023-01-29T18:34:15.368Z,8.15
2023-01-29T18:39:46.434Z,9.80
2023-01-29T18:45:17.741Z,8.25
2023-01-29T18:50:50.769Z,7.45
2023-01-29T18:56:21.886Z,11.65
2023-01-29T19:01:53.225Z,8.25
2023-01-29T19:07:24.696Z,10.13
2023-01-29T19:12:56.301Z,8.20
2023-01-29T19:18:28.740Z,9.20
2023-01-29T19:23:59.955Z,11.13
2023-01-29T19:29:30.949Z,10.60
2023-01-29T19:35:02.418Z,9.07
2023-01-29T19:40:33.581Z,11.07
2023-01-29T19:46:04.797Z,9.90
2023-01-29T19:51:35.858Z,10.80
2023-01-29T19:57:07.846Z,9.85
2023-01-29T20:02:39.523Z,10.10
2023-01-29T20:08:10.737Z,10.15
2023-01-29T20:13:41.822Z,9.75
2023-01-29T20:19:13.182Z,9.85
2023-01-29T20:24:46.468Z,10.73
2023-01-29T20:30:18.372Z,10.18
2023-01-29T20:36:01.212Z,11.35
2023-01-29T20:41:32.189Z,10.13
2023-01-29T20:47:04.305Z,9.77
2023-01-29T20:52:36.939Z,10.73
2023-01-29T20:58:09.595Z,9.27
2023-01-29T21:03:40.691Z,9.05
2023-01-29T21:09:11.680Z,10.45
2023-01-29T21:14:42.652Z,9.05
2023-01-29T21:20:14.054Z,10.70
2023-01-29T21:25:45.876Z,9.00
2023-01-29T21:31:17.842Z,13.05
2023-01-29T21:36:48.848Z,9.98
2023-01-29T21:42:38.636Z,12.60
2023-01-29T21:48:11.584Z,9.32
2023-01-29T21:53:42.569Z,12.25
2023-01-29T21:59:13.637Z,9.20
2023-01-29T22:04:44.677Z,10.77
2023-01-29T22:10:17.855Z,9.85
2023-01-29T22:15:49.860Z,9.00
2023-01-29T22:21:21.039Z,10.32
2023-01-29T22:26:52.044Z,9.80
2023-01-29T22:32:23.039Z,11.20
2023-01-29T22:37:54.295Z,10.98
2023-01-29T22:43:29.457Z,12.60
2023-01-29T22:49:00.515Z,14.02
2023-01-29T22:54:31.563Z,11.05
2023-01-29T23:00:06.905Z,11.32
2023-01-29T23:05:38.267Z,13.35
2023-01-29T23:11:18.773Z,11.13
2023-01-29T23:16:49.941Z,12.90
2023-01-29T23:22:21.281Z,11.98
2023-01-29T23:27:52.513Z,11.40
2023-01-29T23:33:23.924Z,11.48
2023-01-29T23:38:54.907Z,12.15
2023-01-29T23:44:26.015Z,12.23
2023-01-29T23:49:56.964Z,11.90
2023-01-29T23:55:28.082Z,13.52
